Hauptseite
METAR-TAF:

METAR-TAF

Flughäfen :

Landsberg, Deutschland

Fliegerhorst Landsberg/Lech

Breite: 48-04N, Länge: 010-54E, Höhe: 623 m

Beobachtung

Neuester Wetterbericht von vor 47 Minuten, um 10:20 UTC
Wind 4 kt aus Süd
Temperatur 10°C
Luftfeuchtigkeit 40%
Luftdruck 1009 hPa
Sichtweite 10 km oder mehr
Durchbrochene Bewölkung in der Höhe von 11000 ft

METAR: ETSA 271020Z 18004KT 9999 BKN110 10/M03 Q1009 BLU

Zeit: 12:07 (11:07 UTC)

Prognose

Neuester Wetterbericht von vor 2 Stunden und 35 Minuten, um 08:32 UTC
Gültige Prognose vom 27 um 09 UTC bis 27 um 18 UTC
Wind 5 kt aus Süd
Sichtweite 10 km oder mehr
Leicht bewölkt in der Höhe von 15000 ft
Aufgelockert bewölkt in der Höhe von 23000 ft

TAF: ETSA 270832Z 2709/2718 18005KT 9999 NSW FEW150 SCT230 BY ETGL

Wetterbeobachtungen und Prognosen von mehr als 4000 Flughäfen (METAR und TAF Bericht).

Die verfügbaren Stationen werden durch gelbe und rote Markierungen auf der Karte dargestellt.

Führen Sie die Maus auf sie, um den Namen der Station zu sehen.

Darauf klicken, um die Beobachtung von Wetterbeobachtungen und Prognosen zu sehen.

Um die Karte zu ändern : klicken Sie auf den grünen Tasten mit einem schwarzen Kreuz Zum Vergrößern, auf den grünen Button mit einem Gedankenstrich zu verkleinern, oder auf die grünen Pfeile für benachbarte Karten.


METAR-TAF: